Flight Track Log - Related Links

Times and Time Zones

All times are in EDT time to prevent confusion due to time zone crossing. See the CNS13 flight status page for this flight to view local times or setup timezone preferences in your user account.

Time Position Orientation Groundspeed Altitude Reporting Facility
EDT Latitude Longitude Course Direction KTS MPH feet Rate Location/Type
Sun 08:32:21 AM 24.4725 -77.7744 303° West 262 302 12,500  Level Miami Center
Sun 08:33:21 AM 24.5139 -77.8250 312° West 249 287 12,800 500 Climbing Miami Center
Sun 08:35:21 AM 24.5694 -77.9419 298° West 220 253 14,000 400 Climbing Miami Center
Sun 08:36:21 AM 24.6003 -78.0086 297° West 225 259 14,000 -50 Level Miami Center
Sun 08:37:00 AM 24.3035 -77.9059 303° West  Level FlightAware Approximate
Sun 08:37:21 AM 24.6292 -78.0728 296° West 233 268 13,900  Level Miami Center
Sun 08:38:21 AM 24.6600 -78.1394 297° West 239 275 13,900  Level Miami Center
Sun 08:39:21 AM 24.6886 -78.2014 297° West 239 275 13,900 50 Level Miami Center
Sun 08:40:21 AM 24.7214 -78.2658 299° West 239 275 14,000 50 Climbing Miami Center
Sun 08:41:21 AM 24.7500 -78.3303 296° West 239 275 14,000  Level Miami Center
Sun 08:42:21 AM 24.7786 -78.3925 297° West 239 275 14,000  Level Miami Center
Sun 08:43:21 AM 24.8094 -78.4569 298° West 239 275 14,000  Level Miami Center
Sun 08:44:21 AM 24.8381 -78.5192 297° West 239 275 14,000  Level Miami Center
Sun 08:45:21 AM 24.8686 -78.5814 298° West 239 275 14,000  Level Miami Center
Sun 08:46:21 AM 24.8950 -78.6436 295° West 234 269 14,000  Level Miami Center
Sun 08:47:21 AM 24.9214 -78.7058 295° West 234 269 14,000  Level Miami Center
Sun 08:48:21 AM 24.9542 -78.7681 300° West 229 264 14,000  Level Miami Center
Sun 08:49:21 AM 24.9825 -78.8306 297° West 229 264 14,000  Level Miami Center
Sun 08:50:21 AM 25.0089 -78.8906 296° West 229 264 14,000  Level Miami Center
Sun 08:51:21 AM 25.0436 -78.9575 300° West 223 257 14,000  Level Miami Center
Sun 08:52:21 AM 25.0719 -79.0200 297° West 223 257 14,000  Level Miami Center
Sun 08:53:21 AM 25.1003 -79.0803 297° West 223 257 14,000 -300 Level Miami Center
Sun 08:54:21 AM 25.1306 -79.1450 297° West 223 257 13,400 -600 Descending Miami Center
Sun 08:55:21 AM 25.1589 -79.2122 295° West 228 262 12,800 -550 Descending Miami Center
Sun 08:56:21 AM 25.1911 -79.2769 299° West 234 269 12,300 -550 Descending Miami Center
Sun 08:57:21 AM 25.2214 -79.3442 296° West 239 275 11,700 -600 Descending Miami Center
Sun 08:58:21 AM 25.2494 -79.4092 296° West 239 275 11,100 -600 Descending Miami Center
Sun 08:59:21 AM 25.2797 -79.4786 296° West 239 275 10,500 -610 Descending Miami Center
Sun 09:00:19 AM 25.3078 -79.5436 296° West 246 283 9,900 -605 Descending Miami Center
Sun 09:01:20 AM 25.3397 -79.6156 296° West 251 289 9,300 -443 Descending Miami Center
Sun 09:02:21 AM 25.3742 -79.6831 299° West 239 275 9,000 -149 Descending Miami Center
Sun 09:03:21 AM 25.4042 -79.7458 298° West 239 275 9,000  Level Miami Center
Sun 09:04:21 AM 25.4428 -79.8019 307° West 234 269 9,000  Level Miami Center
Sun 09:05:21 AM 25.4792 -79.8581 306° West 234 269 9,000  Level Miami Center
Sun 09:06:21 AM 25.5158 -79.9144 306° West 228 262 9,000 -400 Level Miami Center
Sun 09:07:21 AM 25.5542 -79.9728 306° West 228 262 8,200 -500 Descending Miami Center
Sun 09:08:21 AM 25.5925 -80.0314 306° West 233 268 8,000 -94 Descending Miami Center
Sun 09:09:28 AM 25.6308 -80.1014 301° West 224 258 8,000  Level Miami Center
Sun 09:10:23 AM 25.6694 -80.1464 314° West 221 254 8,000  Level Miami Center
Sun 09:11:30 AM 25.7228 -80.1894 324° Northwest 221 254 8,000  Level Miami Center
Sun 09:12:25 AM 25.7700 -80.2275 324° Northwest 219 252 8,000 -49 Level Miami Center
Sun 09:13:32 AM 25.8233 -80.2683 325° Northwest 210 242 7,900 -844 Descending Miami Center
Sun 09:14:33 AM 25.8706 -80.3089 322° Northwest 205 236 6,200 -1,785 Descending Miami Center
Sun 09:15:33 AM 25.8794 -80.3669 280° West 216 249 4,300 -1,636 Descending Miami Center
Sun 09:16:34 AM 25.8450 -80.4142 231° Southwest 194 223 2,900 -1,230 Descending Miami Center
Sun 09:17:35 AM 25.8033 -80.4039 167° South 169 194 1,800 -934 Descending Miami Center
Sun 09:18:36 AM 25.7983 -80.3553 97° East 139 160 1,000 -703 Descending Miami Center
Sun 09:19:43 AM 25.8014 -80.3183 85° East 96 110 300 -627 Descending Miami Center
Sun 09:21:00 AM 25.7954 -80.2901 77° East  Level Estimated
Sun 09:28:00 AM 25.7954 -80.2901 77° East  Level Estimated

Login

Don't have an account? Register now (free) for customized features, flight alerts, and more!